Time;durP1;ratioP1;P1;durP2;ratioP2;P2;SDS_P1;SDS_P2;PMS_P1;PMS_P2;Temp;Humidity;BMP_temperature;BMP_pressure;BME280_temperature;BME280_humidity;BME280_pressure;Samples;Min_cycle;Max_cycle;Signal;HPM_P1;HPM_P2
2021/11/08 00:01:51;;;;;;;12.20;4.60;;;8.30;99.90;;;;;;5010881;28;20804;-84
2021/11/08 00:04:17;;;;;;;8.23;4.80;;;8.20;99.90;;;;;;5011042;28;20526;-83
2021/11/08 00:06:42;;;;;;;9.07;4.23;;;8.30;99.90;;;;;;5010900;28;20562;-84
2021/11/08 00:09:08;;;;;;;12.77;4.47;;;8.40;99.90;;;;;;5011220;28;20435;-84
2021/11/08 00:11:34;;;;;;;14.43;4.50;;;8.50;99.90;;;;;;5010701;28;20177;-85
2021/11/08 00:14:01;;;;;;;11.30;5.53;;;8.60;99.90;;;;;;5012045;28;20256;-84
2021/11/08 00:16:41;;;;;;;16.90;5.43;;;8.70;99.90;;;;;;5010943;28;20417;-85
2021/11/08 00:21:36;;;;;;;11.83;5.20;;;8.70;99.90;;;;;;5015882;28;20489;-85
2021/11/08 00:24:03;;;;;;;10.93;4.00;;;8.80;99.90;;;;;;5016074;28;20470;-85
2021/11/08 00:26:28;;;;;;;18.97;4.37;;;8.90;99.90;;;;;;5014532;28;20602;-83
2021/11/08 00:28:54;;;;;;;12.80;4.37;;;8.80;99.90;;;;;;5014714;28;20902;-85
2021/11/08 00:31:20;;;;;;;9.10;4.17;;;8.80;99.90;;;;;;5014611;28;20186;-85
2021/11/08 00:33:46;;;;;;;15.50;4.00;;;8.80;99.90;;;;;;5014418;28;20416;-85
2021/11/08 00:36:12;;;;;;;11.57;4.77;;;8.80;99.90;;;;;;5016192;28;20438;-85
2021/11/08 00:38:37;;;;;;;13.80;4.80;;;8.80;99.90;;;;;;5014557;28;20180;-85
2021/11/08 00:41:03;;;;;;;10.70;3.83;;;8.80;99.90;;;;;;5015609;28;20640;-85
2021/11/08 00:43:29;;;;;;;11.33;4.40;;;8.80;99.90;;;;;;5015493;28;20177;-84
2021/11/08 00:45:56;;;;;;;14.50;4.10;;;8.80;99.90;;;;;;5016833;28;20448;-85
2021/11/08 00:48:24;;;;;;;11.63;4.63;;;8.80;99.90;;;;;;5017148;28;20493;-85
2021/11/08 00:50:51;;;;;;;15.33;4.60;;;8.70;99.90;;;;;;5017164;28;20440;-84
2021/11/08 00:53:17;;;;;;;14.97;4.93;;;8.60;99.90;;;;;;5015468;28;20927;-85
2021/11/08 00:55:44;;;;;;;12.07;4.87;;;8.60;99.90;;;;;;5016755;28;20441;-84
2021/11/08 00:58:17;;;;;;;19.03;6.17;;;8.60;99.90;;;;;;5015257;28;20420;-85
2021/11/08 01:00:43;;;;;;;16.00;4.80;;;8.40;99.90;;;;;;5015123;28;20420;-85
2021/11/08 01:03:10;;;;;;;19.30;5.60;;;8.30;99.90;;;;;;5014524;28;20420;-85
2021/11/08 01:05:36;;;;;;;14.50;5.20;;;8.40;99.90;;;;;;5015244;28;20947;-85
2021/11/08 01:08:03;;;;;;;9.90;3.90;;;8.30;99.90;;;;;;5015029;28;20509;-84
2021/11/08 01:10:29;;;;;;;12.90;4.50;;;8.30;99.90;;;;;;5015350;28;20181;-84
2021/11/08 01:12:55;;;;;;;9.47;4.00;;;8.40;99.90;;;;;;5014874;28;21014;-84
2021/11/08 01:15:21;;;;;;;13.10;4.80;;;8.30;99.90;;;;;;5014825;28;20439;-85
2021/11/08 01:17:47;;;;;;;14.70;5.73;;;8.30;99.90;;;;;;5015992;28;20423;-84
2021/11/08 01:20:14;;;;;;;9.07;3.47;;;8.20;99.90;;;;;;5014639;28;20428;-85
2021/11/08 01:22:40;;;;;;;12.00;4.33;;;8.20;99.90;;;;;;5014529;28;20213;-85
2021/11/08 01:25:08;;;;;;;10.00;4.80;;;8.20;99.90;;;;;;5015505;28;20451;-84
2021/11/08 01:27:38;;;;;;;13.30;5.10;;;8.10;99.90;;;;;;5014483;28;20456;-85
2021/11/08 01:30:19;;;;;;;16.73;4.93;;;8.10;99.90;;;;;;5014001;28;20441;-84
2021/11/08 01:32:54;;;;;;;13.30;4.40;;;8.10;99.90;;;;;;5014256;28;20411;-83
2021/11/08 01:35:26;;;;;;;15.17;5.00;;;8.10;99.90;;;;;;5014249;28;20447;-85
2021/11/08 01:38:02;;;;;;;12.47;5.33;;;8.00;99.90;;;;;;5015567;28;20423;-84
2021/11/08 01:40:28;;;;;;;13.00;4.90;;;8.10;99.90;;;;;;5014355;28;20417;-85
2021/11/08 01:42:54;;;;;;;13.97;5.10;;;8.20;99.90;;;;;;5018954;28;20435;-86
2021/11/08 01:45:20;;;;;;;11.93;5.60;;;8.20;99.90;;;;;;5020901;28;20440;-86
2021/11/08 01:47:46;;;;;;;16.20;6.53;;;8.20;99.90;;;;;;5020417;28;20258;-86
2021/11/08 01:50:12;;;;;;;8.47;4.93;;;8.40;99.90;;;;;;5021332;28;20444;-86
2021/11/08 01:52:37;;;;;;;16.47;7.30;;;8.40;99.90;;;;;;5021165;28;20189;-87
2021/11/08 01:55:04;;;;;;;16.60;7.50;;;8.40;99.90;;;;;;5021735;28;20193;-85
2021/11/08 01:57:31;;;;;;;10.87;5.03;;;8.50;99.90;;;;;;5020803;28;20188;-87
2021/11/08 01:59:59;;;;;;;12.97;5.83;;;8.60;99.90;;;;;;5020294;28;20432;-86
2021/11/08 02:02:25;;;;;;;20.50;6.20;;;8.60;99.90;;;;;;5021122;28;20423;-85
2021/11/08 02:04:51;;;;;;;9.40;4.87;;;8.70;99.90;;;;;;5020045;28;20536;-84
2021/11/08 02:07:17;;;;;;;11.40;5.40;;;8.60;99.90;;;;;;5018910;28;20487;-85
2021/11/08 02:09:43;;;;;;;11.77;5.13;;;8.70;99.90;;;;;;5021326;28;20424;-86
2021/11/08 02:12:10;;;;;;;22.10;6.40;;;8.80;99.90;;;;;;5019459;28;20189;-86
2021/11/08 02:14:40;;;;;;;14.63;6.37;;;8.80;99.90;;;;;;5019399;28;20625;-85
2021/11/08 02:17:07;;;;;;;15.63;5.53;;;8.90;99.90;;;;;;5018911;28;20920;-85
2021/11/08 02:19:32;;;;;;;15.63;5.33;;;8.90;99.90;;;;;;5019537;28;20841;-86
2021/11/08 02:22:01;;;;;;;20.27;5.73;;;8.90;99.90;;;;;;5020608;28;20416;-86
2021/11/08 02:24:28;;;;;;;13.17;5.10;;;8.90;99.90;;;;;;5018600;28;20448;-86
2021/11/08 02:26:54;;;;;;;17.07;5.60;;;9.00;99.90;;;;;;5018491;28;20513;-85
2021/11/08 02:29:20;;;;;;;13.90;5.73;;;9.00;99.90;;;;;;5018372;28;20995;-84
2021/11/08 02:31:46;;;;;;;11.63;4.77;;;9.00;99.90;;;;;;5019704;28;20466;-85
2021/11/08 02:34:12;;;;;;;11.83;5.00;;;9.00;99.90;;;;;;5018910;28;20415;-86
2021/11/08 02:36:42;;;;;;;17.10;6.30;;;9.00;99.90;;;;;;5019468;28;20263;-87
2021/11/08 02:39:17;;;;;;;9.23;5.20;;;9.00;99.90;;;;;;5019049;28;20251;-87
2021/11/08 02:41:43;;;;;;;9.30;4.90;;;8.90;99.90;;;;;;5018928;28;20428;-87
2021/11/08 02:44:09;;;;;;;14.43;4.80;;;9.00;99.90;;;;;;5018465;28;20420;-85
2021/11/08 02:46:40;;;;;;;23.87;6.27;;;9.00;99.90;;;;;;5017326;28;20464;-85
2021/11/08 02:49:12;;;;;;;14.50;4.93;;;9.00;99.90;;;;;;5018986;28;20161;-86
2021/11/08 02:51:43;;;;;;;13.17;4.50;;;9.00;99.90;;;;;;5016707;28;20919;-86
2021/11/08 02:54:23;;;;;;;19.33;6.20;;;9.10;99.90;;;;;;5016397;28;20930;-85
2021/11/08 02:56:49;;;;;;;14.57;5.40;;;9.10;99.90;;;;;;5018679;28;20463;-86
2021/11/08 02:59:14;;;;;;;13.43;5.83;;;9.10;99.90;;;;;;5018096;28;20420;-86
2021/11/08 03:01:40;;;;;;;13.13;5.20;;;9.20;99.90;;;;;;5016400;28;20505;-85
2021/11/08 03:04:13;;;;;;;14.37;5.10;;;9.20;99.90;;;;;;5015583;28;20244;-85
2021/11/08 03:06:39;;;;;;;12.33;5.10;;;9.10;99.90;;;;;;5016580;28;20289;-86
2021/11/08 03:09:18;;;;;;;16.20;6.70;;;9.10;99.90;;;;;;5016202;28;20451;-86
2021/11/08 03:11:44;;;;;;;12.73;5.17;;;9.10;99.90;;;;;;5015110;28;20165;-86
2021/11/08 03:14:14;;;;;;;10.20;5.20;;;9.10;99.90;;;;;;5015393;28;20923;-86
2021/11/08 03:19:18;;;;;;;18.77;6.83;;;9.10;99.90;;;;;;5016796;28;20832;-86
2021/11/08 03:21:46;;;;;;;18.70;7.07;;;9.20;99.90;;;;;;5015063;28;20412;-85
2021/11/08 03:24:15;;;;;;;17.50;5.50;;;9.20;99.90;;;;;;5015247;28;20428;-86
2021/11/08 03:26:50;;;;;;;17.73;5.93;;;9.20;99.90;;;;;;5015091;28;20476;-86
2021/11/08 03:29:16;;;;;;;14.07;5.53;;;9.20;99.90;;;;;;5014725;28;20919;-85
2021/11/08 03:31:45;;;;;;;15.13;7.70;;;9.20;99.90;;;;;;5016271;28;20404;-85
2021/11/08 03:34:12;;;;;;;16.37;4.97;;;9.30;99.90;;;;;;5014529;28;20419;-85
2021/11/08 03:36:38;;;;;;;19.53;6.40;;;9.20;99.90;;;;;;5014766;28;20431;-85
2021/11/08 03:39:05;;;;;;;14.53;6.47;;;9.30;99.90;;;;;;5014558;28;20444;-87
2021/11/08 03:41:31;;;;;;;17.30;6.10;;;9.20;99.90;;;;;;5015708;28;20173;-84
2021/11/08 03:43:58;;;;;;;13.87;5.70;;;9.20;99.90;;;;;;5014311;28;20460;-86
2021/11/08 03:46:23;;;;;;;10.17;5.47;;;9.10;99.90;;;;;;5014155;28;20423;-85
2021/11/08 03:48:49;;;;;;;15.73;5.70;;;9.10;99.90;;;;;;5014017;28;20923;-85
2021/11/08 03:51:14;;;;;;;15.10;5.47;;;9.20;99.90;;;;;;5014072;28;20173;-85
2021/11/08 03:53:40;;;;;;;13.23;5.57;;;9.10;99.90;;;;;;5017718;28;20362;-86
2021/11/08 03:56:07;;;;;;;15.00;5.90;;;9.00;99.90;;;;;;5020550;28;20203;-85
2021/11/08 03:58:33;;;;;;;18.60;7.03;;;9.10;99.90;;;;;;5021956;28;20710;-85
2021/11/08 04:01:00;;;;;;;13.67;4.97;;;9.10;99.90;;;;;;5022105;28;20469;-84
2021/11/08 04:03:26;;;;;;;17.27;4.87;;;9.10;99.90;;;;;;5019694;28;20424;-85
2021/11/08 04:05:51;;;;;;;11.33;5.60;;;9.20;99.90;;;;;;5018310;28;21016;-84
2021/11/08 04:08:20;;;;;;;15.83;6.03;;;9.20;99.90;;;;;;5017724;28;20208;-84
2021/11/08 04:10:52;;;;;;;16.77;6.07;;;9.20;99.90;;;;;;5019256;28;20169;-85
2021/11/08 04:13:19;;;;;;;17.00;6.33;;;9.20;99.90;;;;;;5017437;28;20411;-84
2021/11/08 04:15:46;;;;;;;15.60;5.10;;;9.30;99.90;;;;;;5017768;28;20471;-84
2021/11/08 04:18:17;;;;;;;19.13;4.83;;;9.30;99.90;;;;;;5019149;28;20419;-85
2021/11/08 04:20:45;;;;;;;13.47;5.57;;;9.30;99.90;;;;;;5017903;28;20495;-84
2021/11/08 04:23:13;;;;;;;16.07;5.70;;;9.30;99.90;;;;;;5017471;28;20423;-84
2021/11/08 04:25:40;;;;;;;18.73;6.23;;;9.30;99.90;;;;;;5017837;28;20490;-83
2021/11/08 04:28:06;;;;;;;21.27;7.37;;;9.30;99.90;;;;;;5017642;28;20495;-84
2021/11/08 04:30:38;;;;;;;14.87;6.30;;;9.30;99.90;;;;;;5043351;23;20962;-78
2021/11/08 04:38:35;;;;;;;15.57;5.27;;;9.20;99.90;;;;;;5001788;28;20462;-78
2021/11/08 04:43:54;;;;;;;17.27;7.30;;;9.30;99.90;;;;;;5001748;28;20415;-78
2021/11/08 05:21:45;;;;;;;13.43;5.70;;;9.40;99.90;;;;;;4998160;28;20427;-78
2021/11/08 05:30:00;;;;;;;10.00;5.10;;;9.30;99.90;;;;;;4998274;28;20460;-78
2021/11/08 05:32:30;;;;;;;9.90;4.23;;;9.40;99.90;;;;;;4996734;28;20428;-77
2021/11/08 05:34:56;;;;;;;11.43;6.10;;;9.40;99.90;;;;;;4996722;28;20455;-78
2021/11/08 05:37:23;;;;;;;18.33;5.70;;;9.50;99.90;;;;;;4996884;28;20430;-78
2021/11/08 05:39:52;;;;;;;14.70;6.27;;;9.50;99.90;;;;;;4996633;28;20819;-78
2021/11/08 05:42:20;;;;;;;13.93;5.90;;;9.50;99.90;;;;;;4996806;28;20435;-78
2021/11/08 05:44:46;;;;;;;15.37;7.00;;;9.60;99.90;;;;;;4996539;28;20433;-78
2021/11/08 05:47:12;;;;;;;15.50;5.90;;;9.60;99.90;;;;;;4996285;28;20514;-78
2021/11/08 05:49:38;;;;;;;14.17;6.47;;;9.70;99.90;;;;;;4996764;28;20777;-77
2021/11/08 05:52:05;;;;;;;12.30;6.70;;;9.70;99.90;;;;;;4996455;28;20425;-78
2021/11/08 05:54:31;;;;;;;13.00;6.73;;;9.60;99.90;;;;;;4996125;28;20432;-78
2021/11/08 06:49:02;;;;;;;17.97;7.47;;;9.50;99.90;;;;;;4996352;28;20515;-77
2021/11/08 06:51:18;;;;;;;15.37;7.50;;;9.50;99.90;;;;;;4996024;28;20421;-76
2021/11/08 06:53:46;;;;;;;15.20;7.90;;;9.50;99.90;;;;;;4993210;28;20421;-78
2021/11/08 06:56:12;;;;;;;11.40;6.47;;;9.60;99.90;;;;;;4993106;28;20442;-77
2021/11/08 06:58:39;;;;;;;15.07;7.20;;;9.60;99.90;;;;;;4993495;28;20943;-78
2021/11/08 07:01:04;;;;;;;16.87;7.67;;;9.60;99.90;;;;;;4994194;28;20487;-77
2021/11/08 07:03:30;;;;;;;14.80;7.50;;;9.60;99.90;;;;;;4994548;28;20427;-78
2021/11/08 07:05:56;;;;;;;18.07;7.10;;;9.70;99.90;;;;;;4994236;28;20220;-79
2021/11/08 07:08:22;;;;;;;12.13;6.20;;;9.70;99.90;;;;;;4994253;28;20215;-79
2021/11/08 07:10:47;;;;;;;14.90;6.57;;;9.80;99.90;;;;;;4994619;28;20174;-79
2021/11/08 07:13:13;;;;;;;12.87;6.73;;;9.80;99.90;;;;;;4994814;28;20195;-78
2021/11/08 07:15:41;;;;;;;11.97;6.53;;;9.80;99.90;;;;;;4994161;28;20204;-78
2021/11/08 07:18:07;;;;;;;17.07;6.80;;;9.90;99.90;;;;;;5003163;28;20436;-80
2021/11/08 07:20:33;;;;;;;18.03;6.63;;;9.90;99.90;;;;;;5003548;28;20459;-78
2021/11/08 07:22:59;;;;;;;19.70;7.50;;;9.90;99.90;;;;;;5002903;28;20432;-79
2021/11/08 07:25:25;;;;;;;17.10;8.47;;;10.00;99.90;;;;;;5002746;28;20204;-79
2021/11/08 07:27:53;;;;;;;16.97;7.13;;;10.00;99.90;;;;;;4985971;28;20485;-79
2021/11/08 07:30:21;;;;;;;13.33;6.60;;;10.10;99.90;;;;;;5002025;28;20476;-79
2021/11/08 07:32:47;;;;;;;26.30;8.67;;;10.10;99.90;;;;;;5001674;28;20532;-80
2021/11/08 07:35:13;;;;;;;14.00;5.50;;;10.10;99.90;;;;;;5001595;28;20463;-80
2021/11/08 07:37:38;;;;;;;14.57;6.73;;;10.10;99.90;;;;;;5002300;28;20424;-79
2021/11/08 07:40:05;;;;;;;16.03;6.10;;;10.10;99.90;;;;;;5000914;28;20485;-80
2021/11/08 07:42:31;;;;;;;8.47;5.70;;;10.10;99.90;;;;;;5001361;28;20241;-79
2021/11/08 07:44:57;;;;;;;13.87;6.77;;;10.20;99.90;;;;;;5000425;28;20497;-79
2021/11/08 07:47:22;;;;;;;12.50;5.20;;;10.20;99.90;;;;;;5001095;28;20216;-79
2021/11/08 07:49:48;;;;;;;14.30;6.50;;;10.30;99.90;;;;;;5002020;28;20181;-79
2021/11/08 07:52:14;;;;;;;14.37;6.53;;;10.30;99.90;;;;;;5000913;28;20276;-79
2021/11/08 07:54:40;;;;;;;16.20;5.93;;;10.30;99.90;;;;;;4997638;28;20277;-78
2021/11/08 07:57:06;;;;;;;12.60;5.97;;;10.30;99.90;;;;;;4995068;28;20471;-78
2021/11/08 07:59:32;;;;;;;13.50;5.50;;;10.40;99.90;;;;;;4995229;28;20186;-78
2021/11/08 08:01:58;;;;;;;15.43;6.30;;;10.40;99.90;;;;;;4995102;28;20429;-78
2021/11/08 08:04:24;;;;;;;15.07;5.60;;;10.50;99.90;;;;;;4994984;28;20432;-78
2021/11/08 08:06:50;;;;;;;21.63;6.00;;;10.50;99.90;;;;;;4993899;28;20625;-78
2021/11/08 08:09:19;;;;;;;14.47;5.73;;;10.70;99.90;;;;;;4993611;28;20236;-78
2021/11/08 08:11:46;;;;;;;15.80;5.83;;;10.70;99.90;;;;;;4993388;28;20185;-79
2021/11/08 08:14:13;;;;;;;20.03;6.90;;;10.80;99.90;;;;;;4992643;28;20446;-79
2021/11/08 08:16:38;;;;;;;16.17;5.40;;;10.90;99.90;;;;;;4992536;28;20491;-79
2021/11/08 08:19:07;;;;;;;16.67;6.90;;;10.90;99.90;;;;;;4992618;28;20429;-77
2021/11/08 08:21:33;;;;;;;15.40;5.60;;;11.00;99.90;;;;;;4993405;28;20261;-77
2021/11/08 08:24:01;;;;;;;12.77;5.50;;;11.00;99.90;;;;;;4993557;28;20459;-77
2021/11/08 08:26:38;;;;;;;18.57;7.47;;;11.00;99.90;;;;;;4993751;28;20814;-78
2021/11/08 08:29:09;;;;;;;9.40;6.07;;;11.00;99.90;;;;;;4995165;28;20926;-77
2021/11/08 08:31:41;;;;;;;19.40;6.47;;;11.00;99.90;;;;;;4994412;28;20421;-77
2021/11/08 08:34:12;;;;;;;15.43;6.83;;;11.10;99.90;;;;;;4993846;28;20776;-77
2021/11/08 08:36:39;;;;;;;12.63;5.97;;;11.10;99.90;;;;;;4993491;28;20436;-77
2021/11/08 08:39:07;;;;;;;13.20;5.60;;;11.00;99.90;;;;;;4993914;28;20433;-77
2021/11/08 08:41:34;;;;;;;13.90;5.50;;;11.00;99.90;;;;;;4997425;28;20443;-77
2021/11/08 08:44:00;;;;;;;22.40;8.40;;;11.00;99.90;;;;;;4997289;28;20425;-78
2021/11/08 08:46:26;;;;;;;10.77;5.53;;;11.10;99.90;;;;;;4996025;28;20472;-77
2021/11/08 08:48:53;;;;;;;13.40;5.97;;;11.10;99.90;;;;;;4996205;28;20412;-78
2021/11/08 08:51:20;;;;;;;14.93;5.27;;;11.20;99.90;;;;;;4995858;28;20480;-78
2021/11/08 08:53:46;;;;;;;15.50;7.03;;;11.20;99.90;;;;;;4996231;28;20425;-78
2021/11/08 08:56:15;;;;;;;13.43;6.37;;;11.30;99.90;;;;;;4995912;28;20441;-78
2021/11/08 08:58:41;;;;;;;12.27;6.50;;;11.20;99.90;;;;;;4996023;28;20972;-77
2021/11/08 09:01:07;;;;;;;22.07;6.70;;;11.20;99.90;;;;;;4996794;28;20974;-78
2021/11/08 09:03:33;;;;;;;21.47;7.40;;;11.30;99.90;;;;;;4996401;28;20421;-77
2021/11/08 09:05:58;;;;;;;24.40;6.60;;;11.20;99.90;;;;;;4996260;28;20456;-77
2021/11/08 09:08:24;;;;;;;17.20;8.40;;;11.20;99.90;;;;;;4996328;28;20296;-78
2021/11/08 09:10:50;;;;;;;23.20;6.23;;;11.30;99.90;;;;;;4995845;28;20186;-77
2021/11/08 09:13:17;;;;;;;13.30;6.33;;;11.40;99.90;;;;;;4996034;28;20463;-78
2021/11/08 09:15:43;;;;;;;14.07;6.93;;;11.50;99.90;;;;;;4996263;28;20444;-77
2021/11/08 09:18:10;;;;;;;17.50;7.73;;;11.50;99.90;;;;;;4996394;28;20490;-77
2021/11/08 09:20:38;;;;;;;15.60;7.00;;;11.60;99.90;;;;;;4996247;28;20794;-78
2021/11/08 09:23:06;;;;;;;18.10;7.97;;;11.70;99.90;;;;;;4996261;28;20653;-76
2021/11/08 09:25:32;;;;;;;12.20;6.57;;;11.80;99.90;;;;;;4996265;28;20823;-78
2021/11/08 09:28:01;;;;;;;14.07;6.63;;;12.00;99.90;;;;;;4996175;28;20465;-77
2021/11/08 09:30:30;;;;;;;16.60;6.20;;;12.20;99.90;;;;;;4996234;28;20499;-77
2021/11/08 09:32:59;;;;;;;16.87;6.30;;;12.30;99.90;;;;;;4996133;28;20429;-77
2021/11/08 09:35:31;;;;;;;19.77;8.27;;;12.50;99.90;;;;;;4995994;28;20445;-77
2021/11/08 09:37:58;;;;;;;16.23;6.33;;;12.80;99.90;;;;;;4996620;28;20515;-77
2021/11/08 09:40:24;;;;;;;17.73;8.17;;;13.00;99.90;;;;;;4996235;28;20464;-77
2021/11/08 09:42:55;;;;;;;14.47;7.10;;;13.20;99.90;;;;;;4996510;28;20432;-78
2021/11/08 09:45:23;;;;;;;11.00;6.20;;;13.40;99.90;;;;;;4997062;28;20544;-77
2021/11/08 09:47:49;;;;;;;14.73;6.73;;;13.40;99.90;;;;;;4995927;28;20487;-77
2021/11/08 09:50:18;;;;;;;16.47;7.57;;;13.40;99.90;;;;;;4996524;28;20441;-77
2021/11/08 09:52:48;;;;;;;16.57;7.23;;;13.40;99.90;;;;;;4996014;28;20428;-77
2021/11/08 09:55:17;;;;;;;14.30;7.30;;;13.40;99.90;;;;;;4996830;28;20448;-78
2021/11/08 09:57:43;;;;;;;16.97;6.83;;;13.60;99.90;;;;;;4996900;28;20428;-77
2021/11/08 10:00:18;;;;;;;13.53;6.73;;;13.60;99.90;;;;;;4996551;28;20421;-77
2021/11/08 10:03:00;;;;;;;22.40;8.20;;;13.70;99.90;;;;;;4996402;28;20237;-79
2021/11/08 10:05:28;;;;;;;14.83;8.20;;;13.70;99.90;;;;;;4995660;28;20556;-78
2021/11/08 10:07:56;;;;;;;21.93;8.30;;;13.70;99.90;;;;;;4995518;28;20472;-77
2021/11/08 10:10:22;;;;;;;16.80;7.53;;;13.70;99.90;;;;;;4995244;28;20981;-78
2021/11/08 10:12:52;;;;;;;15.13;7.67;;;13.80;99.90;;;;;;4994962;28;20420;-78
2021/11/08 10:15:19;;;;;;;19.73;7.37;;;13.80;99.90;;;;;;4995260;28;20436;-78
2021/11/08 10:17:48;;;;;;;24.47;9.13;;;13.80;99.90;;;;;;4995220;28;20429;-77
2021/11/08 10:20:29;;;;;;;13.37;7.63;;;13.80;99.90;;;;;;4995527;28;20467;-78
2021/11/08 10:22:57;;;;;;;16.27;8.07;;;13.80;99.90;;;;;;4995583;28;20425;-78
2021/11/08 10:25:24;;;;;;;16.30;8.67;;;13.90;99.90;;;;;;4994627;28;20813;-78
2021/11/08 10:27:50;;;;;;;20.47;9.20;;;13.90;99.90;;;;;;4995070;28;20491;-78
2021/11/08 10:30:25;;;;;;;18.10;8.03;;;14.10;99.90;;;;;;4999783;23;20515;-81
2021/11/08 10:33:10;;;;;;;20.67;9.13;;;14.10;99.90;;;;;;4996905;28;20443;-84
2021/11/08 10:35:37;;;;;;;20.37;7.80;;;14.40;99.90;;;;;;4995920;28;20421;-83
2021/11/08 10:38:12;;;;;;;16.77;7.30;;;14.50;99.90;;;;;;4995054;28;20475;-82
2021/11/08 10:40:48;;;;;;;16.67;8.30;;;14.50;99.90;;;;;;4994006;28;20867;-81
2021/11/08 10:43:33;;;;;;;15.70;7.80;;;14.60;99.90;;;;;;4992393;28;20412;-80
2021/11/08 10:46:03;;;;;;;18.77;8.43;;;14.60;99.90;;;;;;4993782;28;20436;-81
2021/11/08 10:48:36;;;;;;;13.50;7.60;;;14.60;99.90;;;;;;4992612;28;20542;-81
2021/11/08 10:51:05;;;;;;;14.27;8.60;;;14.50;99.90;;;;;;4992229;28;20565;-81
2021/11/08 10:53:31;;;;;;;24.20;9.13;;;14.40;99.90;;;;;;4992131;28;20444;-81
2021/11/08 10:56:07;;;;;;;15.10;7.57;;;14.40;99.90;;;;;;4993491;28;20942;-81
2021/11/08 10:58:34;;;;;;;18.10;7.83;;;14.10;99.90;;;;;;4993586;28;20768;-81
2021/11/08 11:01:02;;;;;;;19.03;7.07;;;14.20;99.90;;;;;;4993350;28;20433;-81
2021/11/08 11:03:28;;;;;;;20.70;7.70;;;14.30;99.90;;;;;;4990898;28;20476;-81
2021/11/08 11:06:03;;;;;;;18.30;7.47;;;14.20;99.90;;;;;;4992077;28;20424;-81
2021/11/08 11:08:32;;;;;;;18.60;8.20;;;14.20;99.90;;;;;;4992133;28;20471;-81
2021/11/08 11:11:04;;;;;;;29.13;7.73;;;13.90;99.90;;;;;;4993167;28;20457;-81
2021/11/08 11:13:31;;;;;;;21.00;7.37;;;13.70;99.90;;;;;;4991765;28;20472;-81
2021/11/08 11:16:02;;;;;;;13.83;7.27;;;13.80;99.90;;;;;;4991881;28;20415;-80
2021/11/08 11:18:37;;;;;;;18.63;7.73;;;13.80;99.90;;;;;;4992026;28;20409;-81
2021/11/08 11:21:20;;;;;;;15.53;6.83;;;13.70;99.90;;;;;;4993058;28;20432;-81
2021/11/08 11:23:49;;;;;;;14.47;6.10;;;13.80;99.90;;;;;;4991512;28;20417;-81
2021/11/08 11:26:18;;;;;;;19.80;6.40;;;13.90;99.90;;;;;;4991849;28;20428;-81
2021/11/08 11:28:47;;;;;;;11.80;6.73;;;14.00;99.90;;;;;;4993061;28;20456;-81
2021/11/08 11:31:21;;;;;;;12.43;7.27;;;14.00;99.90;;;;;;4992792;28;20448;-80
2021/11/08 11:33:54;;;;;;;15.60;8.03;;;14.10;99.90;;;;;;4991409;28;20414;-80
2021/11/08 11:36:22;;;;;;;17.13;7.50;;;14.30;99.90;;;;;;4991796;28;20496;-80
2021/11/08 11:38:56;;;;;;;20.13;7.20;;;14.30;99.90;;;;;;4991751;28;20421;-80
2021/11/08 11:41:30;;;;;;;20.57;7.00;;;14.00;99.90;;;;;;4991455;28;21146;-80
2021/11/08 11:44:01;;;;;;;15.67;6.73;;;13.80;99.90;;;;;;4991340;28;20425;-80
2021/11/08 11:46:32;;;;;;;19.90;7.47;;;13.80;99.90;;;;;;4991575;28;20405;-80
2021/11/08 11:49:02;;;;;;;15.87;6.00;;;13.50;99.90;;;;;;4991499;28;20413;-80
2021/11/08 11:51:31;;;;;;;15.10;5.53;;;13.40;99.90;;;;;;4992686;28;20389;-81
2021/11/08 11:53:58;;;;;;;16.97;6.57;;;13.60;99.90;;;;;;4992418;28;20405;-80
2021/11/08 11:56:25;;;;;;;16.80;6.30;;;13.50;99.90;;;;;;4992686;28;20459;-81
2021/11/08 11:58:52;;;;;;;16.53;6.80;;;13.70;99.90;;;;;;4991466;28;20507;-79
2021/11/08 12:01:25;;;;;;;16.37;5.40;;;13.50;99.90;;;;;;4991210;28;20440;-80
2021/11/08 12:03:51;;;;;;;18.13;6.53;;;13.50;99.90;;;;;;4991016;28;20855;-80
2021/11/08 12:06:22;;;;;;;16.97;5.80;;;13.50;99.90;;;;;;4991980;28;20425;-80
2021/11/08 12:08:51;;;;;;;14.00;5.50;;;13.50;99.90;;;;;;4991268;28;20468;-80
2021/11/08 12:11:31;;;;;;;11.93;5.70;;;13.70;99.90;;;;;;4992770;28;20808;-80
2021/11/08 12:14:00;;;;;;;12.57;5.20;;;13.70;99.90;;;;;;4991311;28;20417;-80
2021/11/08 12:16:26;;;;;;;14.50;4.50;;;13.60;99.90;;;;;;4995507;28;20428;-80
2021/11/08 12:18:53;;;;;;;15.40;5.50;;;13.60;99.90;;;;;;4996756;28;20409;-80
2021/11/08 12:21:33;;;;;;;12.60;4.33;;;13.70;99.90;;;;;;4996855;28;20432;-80
2021/11/08 12:24:15;;;;;;;10.80;4.40;;;13.50;99.90;;;;;;4996515;28;20479;-80
2021/11/08 12:26:41;;;;;;;13.93;4.70;;;13.50;99.90;;;;;;4995471;28;20450;-80
2021/11/08 12:29:12;;;;;;;16.70;5.30;;;13.50;99.90;;;;;;4996062;28;20409;-80
2021/11/08 12:31:38;;;;;;;14.13;4.37;;;13.60;99.90;;;;;;4995029;28;20201;-80
2021/11/08 12:34:09;;;;;;;17.70;4.90;;;13.70;99.90;;;;;;4994964;28;20455;-80
2021/11/08 12:36:36;;;;;;;13.83;5.87;;;13.80;99.90;;;;;;4994875;28;20647;-80
2021/11/08 12:39:10;;;;;;;10.67;4.40;;;13.80;99.90;;;;;;4996332;28;20808;-80
2021/11/08 12:41:48;;;;;;;11.87;4.40;;;13.80;99.90;;;;;;4996126;28;20423;-81
2021/11/08 12:44:31;;;;;;;14.23;3.97;;;13.90;99.90;;;;;;4994614;28;20496;-81
2021/11/08 12:46:58;;;;;;;15.63;4.90;;;13.90;99.90;;;;;;4994804;28;20822;-81
2021/11/08 12:49:35;;;;;;;12.87;4.60;;;14.00;99.90;;;;;;4994905;28;20444;-80
2021/11/08 12:52:04;;;;;;;17.10;5.53;;;14.10;99.90;;;;;;4994731;28;20412;-80
2021/11/08 12:54:31;;;;;;;11.90;5.27;;;14.10;99.90;;;;;;4995826;28;20839;-81
2021/11/08 12:57:08;;;;;;;16.53;5.27;;;14.00;99.90;;;;;;4994861;28;20444;-82
2021/11/08 12:59:51;;;;;;;13.30;4.10;;;14.20;99.90;;;;;;4994703;28;20822;-82
2021/11/08 13:02:23;;;;;;;14.20;5.00;;;14.30;99.90;;;;;;4995435;28;20413;-80
2021/11/08 13:05:01;;;;;;;12.13;4.00;;;14.20;99.90;;;;;;4988849;28;20440;-81
2021/11/08 13:07:30;;;;;;;15.13;4.23;;;14.20;99.90;;;;;;4992909;28;20452;-80
2021/11/08 13:09:57;;;;;;;14.90;4.53;;;14.10;99.90;;;;;;4994301;28;20439;-80
2021/11/08 13:12:23;;;;;;;11.30;4.30;;;13.80;99.90;;;;;;4993618;28;20424;-80
2021/11/08 13:15:06;;;;;;;13.77;4.30;;;13.70;99.90;;;;;;4994178;28;20417;-80
2021/11/08 13:17:44;;;;;;;10.83;4.53;;;13.70;99.90;;;;;;4995399;28;20909;-80
2021/11/08 13:20:10;;;;;;;11.50;4.40;;;13.70;99.90;;;;;;4997524;28;20437;-81
2021/11/08 13:22:40;;;;;;;11.83;5.33;;;13.60;99.90;;;;;;4997044;28;20504;-80
2021/11/08 13:25:10;;;;;;;14.50;4.40;;;13.70;99.90;;;;;;4994080;28;20429;-79
2021/11/08 13:27:37;;;;;;;15.80;4.30;;;13.80;99.90;;;;;;4995042;28;20483;-81
2021/11/08 13:30:09;;;;;;;9.90;4.33;;;13.70;99.90;;;;;;4996055;28;20451;-81
2021/11/08 13:32:36;;;;;;;15.43;5.10;;;13.70;99.90;;;;;;4994828;28;20427;-80
2021/11/08 13:35:14;;;;;;;10.37;4.00;;;13.60;99.90;;;;;;4996570;28;20416;-79
2021/11/08 13:37:42;;;;;;;8.50;3.87;;;13.60;99.90;;;;;;4995595;28;20795;-80
2021/11/08 13:40:17;;;;;;;9.00;3.83;;;13.70;99.90;;;;;;4995770;28;20451;-79
2021/11/08 13:42:43;;;;;;;14.20;4.27;;;13.60;99.90;;;;;;4998111;28;20490;-80
2021/11/08 13:45:09;;;;;;;8.47;4.40;;;13.60;99.90;;;;;;5000983;28;20485;-81
2021/11/08 13:47:44;;;;;;;12.40;4.10;;;13.60;99.90;;;;;;5000434;28;20551;-81
2021/11/08 13:50:27;;;;;;;10.30;4.40;;;13.80;99.90;;;;;;4996353;28;20263;-81
2021/11/08 13:52:56;;;;;;;11.80;3.83;;;13.70;99.90;;;;;;4999320;28;20413;-81
2021/11/08 13:55:22;;;;;;;18.77;4.80;;;13.60;99.90;;;;;;4996730;28;20409;-82
2021/11/08 13:57:47;;;;;;;19.30;4.73;;;13.50;99.90;;;;;;4994122;28;20990;-86
2021/11/08 14:00:17;;;;;;;13.20;5.20;;;13.60;99.90;;;;;;4994115;28;20217;-83
2021/11/08 14:02:43;;;;;;;15.23;4.23;;;13.60;99.90;;;;;;4994050;28;20182;-84
2021/11/08 14:05:11;;;;;;;13.33;4.40;;;13.40;99.90;;;;;;4994060;28;20425;-84
2021/11/08 14:07:37;;;;;;;12.63;4.43;;;13.40;99.90;;;;;;4993837;28;20469;-84
2021/11/08 14:10:07;;;;;;;14.00;4.07;;;13.40;99.90;;;;;;4994239;28;20552;-83
2021/11/08 14:12:32;;;;;;;12.13;4.33;;;13.40;99.90;;;;;;4994918;28;20414;-84
2021/11/08 14:15:00;;;;;;;16.50;5.03;;;13.50;99.90;;;;;;4993685;28;20436;-85
2021/11/08 14:17:30;;;;;;;8.73;4.20;;;13.50;99.90;;;;;;4993682;28;20185;-85
2021/11/08 14:20:22;;;;;;;11.57;4.37;;;13.40;99.90;;;;;;4993390;28;20468;-85
2021/11/08 14:22:47;;;;;;;9.20;4.33;;;13.40;99.90;;;;;;4990473;28;20417;-87
2021/11/08 14:25:14;;;;;;;14.23;3.93;;;13.40;99.90;;;;;;4993545;28;20799;-84
2021/11/08 14:27:42;;;;;;;14.20;3.80;;;13.40;99.90;;;;;;4993564;28;20212;-85
2021/11/08 14:30:20;;;;;;;8.13;4.50;;;13.40;99.90;;;;;;4993258;28;20453;-85
2021/11/08 14:32:47;;;;;;;14.13;5.00;;;13.40;99.90;;;;;;4994265;28;20911;-85
2021/11/08 14:35:21;;;;;;;9.43;4.00;;;13.30;99.90;;;;;;4993167;28;20500;-86
2021/11/08 14:38:13;;;;;;;11.73;3.63;;;13.30;99.90;;;;;;4993006;28;20427;-86